createdAt,value
2023-03-22T00:00:01.370Z,88.00
2023-03-22T00:02:30.324Z,88.30
2023-03-22T00:04:57.429Z,88.30
2023-03-22T00:07:24.760Z,88.70
2023-03-22T00:09:51.916Z,89.00
2023-03-22T00:12:18.991Z,89.10
2023-03-22T00:14:46.117Z,89.40
2023-03-22T00:17:13.176Z,89.30
2023-03-22T00:19:42.104Z,89.40
2023-03-22T00:22:09.188Z,89.90
2023-03-22T00:24:36.312Z,90.00
2023-03-22T00:27:03.645Z,90.00
2023-03-22T00:29:30.881Z,90.10
2023-03-22T00:31:57.923Z,90.10
2023-03-22T00:34:26.590Z,90.20
2023-03-22T00:36:53.676Z,90.30
2023-03-22T00:39:20.830Z,90.40
2023-03-22T00:41:47.927Z,90.30
2023-03-22T00:44:15.312Z,90.50
2023-03-22T00:46:42.371Z,90.60
2023-03-22T00:49:09.473Z,90.70
2023-03-22T00:51:36.525Z,90.70
2023-03-22T00:54:03.664Z,90.70
2023-03-22T00:56:33.754Z,90.50
2023-03-22T00:59:00.848Z,90.50
2023-03-22T01:01:27.988Z,90.70
2023-03-22T01:03:55.156Z,90.50
2023-03-22T01:06:22.247Z,90.50
2023-03-22T01:08:50.748Z,90.50
2023-03-22T01:11:18.393Z,91.00
2023-03-22T01:13:45.522Z,91.10
2023-03-22T01:16:12.674Z,91.20
2023-03-22T01:18:39.814Z,91.10
2023-03-22T01:21:07.385Z,90.80
2023-03-22T01:23:35.148Z,90.60
2023-03-22T01:26:02.521Z,90.60
2023-03-22T01:28:30.321Z,90.50
2023-03-22T01:31:01.707Z,90.50
2023-03-22T01:33:28.831Z,90.50
2023-03-22T01:35:55.941Z,90.50
2023-03-22T01:38:23.033Z,90.50
2023-03-22T01:40:50.454Z,90.40
2023-03-22T01:43:18.042Z,90.50
2023-03-22T01:45:51.421Z,90.40
2023-03-22T01:48:46.030Z,90.40
2023-03-22T01:51:22.392Z,90.60
2023-03-22T01:53:54.636Z,91.20
2023-03-22T01:56:25.712Z,91.70
2023-03-22T01:58:54.949Z,91.70
2023-03-22T02:01:23.438Z,91.60
2023-03-22T02:03:56.465Z,91.80
2023-03-22T02:06:24.398Z,91.80
2023-03-22T02:08:52.915Z,91.80
2023-03-22T02:11:29.037Z,91.70
2023-03-22T02:14:13.417Z,91.50
2023-03-22T02:17:04.830Z,91.50
2023-03-22T02:20:28.758Z,91.40
2023-03-22T02:23:20.742Z,91.40
2023-03-22T02:26:23.995Z,91.50
2023-03-22T02:29:29.922Z,91.40
2023-03-22T02:32:34.803Z,91.50
2023-03-22T02:35:20.432Z,91.40
2023-03-22T02:38:01.131Z,91.50
2023-03-22T02:40:46.500Z,91.40
2023-03-22T02:43:51.630Z,91.50
2023-03-22T02:46:30.636Z,91.50
2023-03-22T02:49:11.806Z,91.50
2023-03-22T02:52:03.161Z,91.50
2023-03-22T02:54:58.043Z,91.40
2023-03-22T02:57:27.905Z,91.40
2023-03-22T02:59:56.758Z,91.60
2023-03-22T03:02:26.598Z,92.10
2023-03-22T03:04:55.979Z,92.10
2023-03-22T03:07:27.124Z,92.30
2023-03-22T03:09:54.450Z,92.40
2023-03-22T03:12:24.369Z,92.60
2023-03-22T03:14:52.021Z,92.50
2023-03-22T03:17:41.224Z,92.50
2023-03-22T03:20:24.048Z,92.40
2023-03-22T03:23:24.438Z,92.30
2023-03-22T03:26:22.526Z,92.30
2023-03-22T03:29:17.930Z,92.30
2023-03-22T03:31:55.651Z,92.20
2023-03-22T03:34:31.329Z,92.20
2023-03-22T03:37:13.578Z,92.20
2023-03-22T03:39:48.325Z,92.10
2023-03-22T03:42:17.590Z,92.10
2023-03-22T03:44:45.628Z,92.00
2023-03-22T03:47:13.995Z,92.10
2023-03-22T03:49:43.891Z,91.90
2023-03-22T03:52:11.008Z,92.20
2023-03-22T03:54:38.058Z,91.70
2023-03-22T03:57:05.842Z,91.60
2023-03-22T03:59:32.899Z,91.50
2023-03-22T04:02:00.354Z,91.40
2023-03-22T04:04:29.078Z,91.40
2023-03-22T04:07:01.641Z,91.30
2023-03-22T04:09:31.659Z,91.30
2023-03-22T04:11:59.045Z,91.10
2023-03-22T04:14:26.866Z,91.10
2023-03-22T04:16:54.783Z,91.10
2023-03-22T04:19:22.599Z,91.00
2023-03-22T04:21:49.666Z,91.30
2023-03-22T04:24:16.711Z,91.70
2023-03-22T04:26:43.817Z,91.90
2023-03-22T04:29:10.990Z,91.90
2023-03-22T04:31:39.042Z,92.00
2023-03-22T04:34:06.817Z,92.10
2023-03-22T04:36:39.189Z,92.10
2023-03-22T04:39:11.341Z,92.10
2023-03-22T04:41:38.584Z,92.00
2023-03-22T04:44:06.916Z,91.90
2023-03-22T04:46:35.943Z,92.00
2023-03-22T04:49:04.053Z,91.50
2023-03-22T04:51:32.019Z,91.40
2023-03-22T04:53:59.399Z,91.40
2023-03-22T04:56:26.500Z,91.30
2023-03-22T04:58:53.620Z,91.20
2023-03-22T05:01:20.863Z,91.20
2023-03-22T05:03:48.241Z,91.10
2023-03-22T05:06:15.745Z,91.10
2023-03-22T05:08:42.828Z,91.10
2023-03-22T05:11:13.523Z,91.10
2023-03-22T05:13:40.914Z,91.20
2023-03-22T05:16:08.560Z,91.30
2023-03-22T05:18:37.961Z,91.70
2023-03-22T05:21:06.834Z,91.80
2023-03-22T05:23:33.968Z,91.80
2023-03-22T05:26:01.890Z,91.80
2023-03-22T05:28:29.052Z,91.80
2023-03-22T05:30:57.298Z,91.80
2023-03-22T05:33:24.478Z,91.80
2023-03-22T05:35:51.778Z,91.80
2023-03-22T05:38:18.901Z,91.80
2023-03-22T05:40:46.295Z,91.70
2023-03-22T05:43:13.404Z,91.60
2023-03-22T05:45:40.492Z,91.80
2023-03-22T05:48:07.871Z,91.70
2023-03-22T05:50:35.479Z,91.70
2023-03-22T05:53:03.871Z,91.60
2023-03-22T05:55:31.988Z,91.50
2023-03-22T05:58:01.220Z,91.40
2023-03-22T06:00:31.814Z,91.30
2023-03-22T06:03:03.472Z,91.30
2023-03-22T06:05:31.759Z,91.30
2023-03-22T06:07:59.567Z,91.20
2023-03-22T06:10:29.431Z,91.40
2023-03-22T06:12:56.534Z,91.00
2023-03-22T06:15:23.613Z,91.00
2023-03-22T06:17:50.668Z,90.90
2023-03-22T06:20:17.989Z,90.90
2023-03-22T06:22:45.082Z,90.80
2023-03-22T06:25:12.197Z,90.80
2023-03-22T06:27:39.261Z,90.70
2023-03-22T06:30:07.138Z,90.80
2023-03-22T06:32:34.265Z,90.70
2023-03-22T06:35:01.321Z,90.90
2023-03-22T06:37:28.397Z,90.50
2023-03-22T06:39:55.473Z,90.60
2023-03-22T06:42:25.940Z,90.70
2023-03-22T06:44:52.994Z,90.60
2023-03-22T06:47:20.130Z,90.60
2023-03-22T06:49:47.189Z,90.60
2023-03-22T06:52:14.363Z,90.60
2023-03-22T06:54:41.632Z,90.60
2023-03-22T06:57:08.872Z,90.50
2023-03-22T06:59:35.966Z,90.60
2023-03-22T07:02:03.344Z,90.20
2023-03-22T07:04:30.793Z,87.90
2023-03-22T07:06:57.906Z,88.10
2023-03-22T07:09:26.728Z,88.20
2023-03-22T07:11:54.004Z,88.10
2023-03-22T07:14:21.234Z,88.10
2023-03-22T07:16:48.370Z,88.50
2023-03-22T07:19:17.263Z,88.60
2023-03-22T07:21:44.434Z,88.90
2023-03-22T07:24:12.009Z,89.00
2023-03-22T07:26:39.407Z,89.50
2023-03-22T07:29:06.619Z,89.40
2023-03-22T07:31:38.165Z,89.40
2023-03-22T07:34:06.374Z,89.50
2023-03-22T07:36:33.609Z,89.70
2023-03-22T07:39:01.178Z,89.70
2023-03-22T07:41:30.125Z,89.20
2023-03-22T07:44:11.199Z,89.40
2023-03-22T07:46:42.286Z,88.20
2023-03-22T07:49:09.422Z,87.10
2023-03-22T07:51:36.530Z,87.60
2023-03-22T07:54:04.796Z,87.20
2023-03-22T07:56:32.778Z,87.30
2023-03-22T07:58:59.851Z,87.00
2023-03-22T08:01:27.036Z,87.10
2023-03-22T08:03:54.121Z,87.30
2023-03-22T08:06:21.518Z,87.50
2023-03-22T08:08:48.628Z,87.40
2023-03-22T08:11:15.852Z,87.60
2023-03-22T08:13:42.942Z,87.70
2023-03-22T08:16:10.350Z,87.70
2023-03-22T08:18:37.498Z,86.90
2023-03-22T08:21:04.764Z,87.20
2023-03-22T08:23:41.506Z,86.90
2023-03-22T08:26:10.936Z,86.90
2023-03-22T08:28:38.162Z,87.00
2023-03-22T08:31:16.920Z,87.10
2023-03-22T08:33:44.614Z,87.20
2023-03-22T08:36:17.661Z,86.70
2023-03-22T08:38:45.332Z,86.40
2023-03-22T08:41:13.137Z,86.40
2023-03-22T08:43:40.298Z,86.30
2023-03-22T08:46:07.627Z,85.80
2023-03-22T08:48:37.761Z,86.00
2023-03-22T08:51:06.545Z,86.10
2023-03-22T08:53:33.838Z,85.90
2023-03-22T08:56:01.682Z,85.70
2023-03-22T08:58:28.764Z,86.30
2023-03-22T09:00:55.911Z,85.60
2023-03-22T09:03:24.742Z,85.40
2023-03-22T09:05:51.966Z,85.40
2023-03-22T09:08:20.185Z,85.40
2023-03-22T09:10:51.352Z,85.40
2023-03-22T09:13:19.228Z,85.30
2023-03-22T09:15:46.489Z,85.30
2023-03-22T09:18:14.339Z,85.10
2023-03-22T09:20:41.711Z,85.10
2023-03-22T09:23:09.009Z,85.10
2023-03-22T09:25:36.531Z,84.90
2023-03-22T09:28:04.681Z,84.90
2023-03-22T09:30:31.772Z,83.00
2023-03-22T09:32:58.811Z,83.20
2023-03-22T09:35:25.934Z,76.70
2023-03-22T09:37:54.368Z,76.60
2023-03-22T09:40:29.499Z,78.10
2023-03-22T09:43:00.555Z,76.60
2023-03-22T09:45:38.087Z,75.20
2023-03-22T09:48:33.922Z,74.40
2023-03-22T09:51:02.534Z,73.00
2023-03-22T09:53:32.193Z,74.00
2023-03-22T09:56:23.027Z,73.40
2023-03-22T09:59:07.121Z,72.90
2023-03-22T10:01:48.386Z,74.20
2023-03-22T10:04:37.581Z,71.70
2023-03-22T10:07:27.632Z,69.80
2023-03-22T10:10:30.285Z,68.40
2023-03-22T10:13:19.854Z,68.00
2023-03-22T10:15:53.500Z,70.20
2023-03-22T10:18:24.806Z,70.00
2023-03-22T10:21:12.731Z,70.60
2023-03-22T10:24:12.765Z,74.10
2023-03-22T10:26:44.671Z,74.80
2023-03-22T10:29:13.300Z,76.10
2023-03-22T10:31:44.922Z,77.20
2023-03-22T10:34:22.919Z,77.90
2023-03-22T10:36:52.485Z,78.80
2023-03-22T10:39:31.614Z,79.50
2023-03-22T10:42:18.124Z,80.20
2023-03-22T10:44:53.629Z,81.40
2023-03-22T10:47:47.503Z,81.40
2023-03-22T10:50:21.427Z,81.80
2023-03-22T10:53:08.039Z,82.10
2023-03-22T10:55:43.526Z,82.20
2023-03-22T10:58:17.092Z,82.30
2023-03-22T11:00:57.671Z,82.70
2023-03-22T11:03:48.502Z,82.50
2023-03-22T11:06:15.506Z,83.20
2023-03-22T11:08:49.598Z,83.40
2023-03-22T11:11:20.763Z,83.80
2023-03-22T11:14:08.151Z,84.30
2023-03-22T11:17:09.975Z,84.50
2023-03-22T11:19:39.685Z,84.20
2023-03-22T11:22:35.817Z,84.60
2023-03-22T11:25:07.316Z,84.70
2023-03-22T11:27:34.499Z,84.70
2023-03-22T11:30:28.756Z,84.90
2023-03-22T11:33:08.072Z,85.10
2023-03-22T11:35:37.784Z,85.40
2023-03-22T11:38:05.552Z,85.40
2023-03-22T11:40:36.123Z,85.30
2023-03-22T11:43:27.725Z,85.30
2023-03-22T11:45:57.572Z,85.10
2023-03-22T11:48:27.737Z,84.80
2023-03-22T11:50:58.891Z,84.80
2023-03-22T11:53:27.763Z,84.80
2023-03-22T11:55:57.583Z,84.90
2023-03-22T11:58:43.050Z,85.20
2023-03-22T12:01:37.223Z,85.40
2023-03-22T12:04:09.359Z,85.70
2023-03-22T12:06:40.998Z,86.30
2023-03-22T12:09:25.479Z,86.40
2023-03-22T12:11:58.946Z,84.80
2023-03-22T12:14:29.138Z,84.70
2023-03-22T12:17:12.446Z,85.70
2023-03-22T12:20:06.940Z,85.50
2023-03-22T12:22:45.510Z,84.40
2023-03-22T12:25:18.464Z,81.30
2023-03-22T12:27:53.305Z,81.10
2023-03-22T12:30:25.234Z,81.50
2023-03-22T12:33:08.923Z,83.20
2023-03-22T12:35:41.809Z,83.40
2023-03-22T12:38:27.888Z,85.20
2023-03-22T12:41:00.352Z,84.30
2023-03-22T12:43:53.214Z,83.00
2023-03-22T12:46:28.053Z,83.10
2023-03-22T12:49:19.266Z,83.50
2023-03-22T12:51:48.688Z,83.70
2023-03-22T12:54:18.924Z,83.60
2023-03-22T12:56:46.758Z,83.40
2023-03-22T12:59:21.994Z,81.30
2023-03-22T13:02:13.989Z,82.10
2023-03-22T13:04:44.013Z,82.50
2023-03-22T13:07:14.732Z,81.10
2023-03-22T13:09:51.421Z,83.10
2023-03-22T13:12:18.528Z,83.00
2023-03-22T13:15:13.029Z,83.10
2023-03-22T13:17:44.562Z,83.40
2023-03-22T13:20:11.735Z,82.60
2023-03-22T13:22:38.772Z,84.80
2023-03-22T13:25:12.477Z,85.90
2023-03-22T13:27:45.754Z,86.40
2023-03-22T13:30:22.129Z,85.80
2023-03-22T13:33:04.249Z,84.90
2023-03-22T13:35:52.649Z,84.40
2023-03-22T13:38:43.481Z,84.20
2023-03-22T13:41:24.152Z,83.70
2023-03-22T13:43:54.395Z,83.40
2023-03-22T13:46:21.548Z,84.20
2023-03-22T13:48:49.489Z,83.50
2023-03-22T13:51:18.717Z,83.00
2023-03-22T13:54:20.961Z,83.40
2023-03-22T13:56:56.288Z,81.10
2023-03-22T13:59:29.664Z,83.00
2023-03-22T14:02:07.453Z,85.00
2023-03-22T14:04:48.676Z,85.70
2023-03-22T14:07:30.741Z,85.50
2023-03-22T14:10:02.694Z,81.50
2023-03-22T14:12:50.673Z,84.70
2023-03-22T14:15:28.796Z,87.30
2023-03-22T14:18:11.509Z,87.00
2023-03-22T14:20:39.826Z,87.80
